Weather History for Cody, WY

Change the Weather History Date:

Wednesday, February 27, 2013

  Actual Average Record
Temperature  
Mean Temperature 29 °F -  
Max Temperature 39 °F 44 °F 70 °F (1932)
Min Temperature 19 °F 22 °F -15 °F (1962)
Degree Days  
Heating Degree Days 36    
Moisture  
Dew Point 8 °F    
Average Humidity 39    
Maximum Humidity 68    
Minimum Humidity 28    
Precipitation  
Precipitation 0.00 in - - ()
Sea Level Pressure  
Sea Level Pressure 30.16 in    
Wind  
Wind Speed 9 mph (WSW)    
Max Wind Speed 18 mph    
Max Gust Speed 31 mph    
Visibility 10 miles    
Events      
Averages and records for this station are not official NWS values.
T = Trace of Precipitation, MM = Missing Value Source: NWS Daily Summary

Daily Weather History Graph

Daily Weather History Graph

Search for Another Location

Airport:

Trip Planner

Search our weather history database for the weather conditions in past years. The results will help you decide how hot, cold, wet, or windy it might be!

Date:

Astronomy

Feb. 27, 2013 Rise Set
Actual Time 6:56 AM MST 6:01 PM MST
Civil Twilight 6:27 AM MST 6:31 PM MST
Nautical Twilight 5:53 AM MST 7:04 PM MST
Astronomical Twilight 5:19 AM MST 7:38 PM MST
Moon 8:34 PM MST (2/27) 7:26 AM MST (2/27)
Length of Visible Light 12h 04m
Length of Day
11h 05m
Waning Gibbous, 96% of the Moon is Illuminated
Feb 27
Waning Gibbous
Mar 4
Last Quarter
Mar 11
New
Mar 19
First Quarter
Mar 27
Full

Hourly Weather History & Observations

Time (MST) Temp. Windchill Dew Point Humidity Pressure Visibility Wind Dir Wind Speed Gust Speed Precip Events Conditions
12:15 AM 19.4 °F - 10.4 °F 68% 30.16 in 10.0 mi Calm Calm - N/A   Clear
12:35 AM 21.2 °F - 8.6 °F 58% 30.16 in 10.0 mi Calm Calm - N/A   Clear
12:55 AM 23.0 °F - 8.6 °F 54% 30.17 in 10.0 mi Calm Calm - N/A   Clear
1:15 AM 23.0 °F 17.0 °F 8.6 °F 54% 30.17 in 10.0 mi West 4.6 mph - N/A   Clear
1:35 AM 21.2 °F - 6.8 °F 54% 30.17 in 10.0 mi Calm Calm - N/A   Clear
1:55 AM 24.8 °F 16.1 °F 8.6 °F 50% 30.17 in 10.0 mi SW 8.1 mph - N/A   Clear
2:35 AM 24.8 °F 16.1 °F 8.6 °F 50% 30.17 in 10.0 mi SW 8.1 mph 16.1 mph N/A   Clear
2:55 AM 24.8 °F 12.9 °F 8.6 °F 50% 30.17 in 10.0 mi WSW 13.8 mph 18.4 mph N/A   Clear
3:15 AM 24.8 °F 15.3 °F 6.8 °F 46% 30.17 in 10.0 mi South 9.2 mph - N/A   Clear
3:35 AM 24.8 °F 16.1 °F 8.6 °F 50% 30.16 in 10.0 mi West 8.1 mph - N/A   Clear
3:55 AM 26.6 °F 18.2 °F 6.8 °F 43% 30.17 in 10.0 mi SW 8.1 mph - N/A   Clear
4:15 AM 24.8 °F 17.9 °F 6.8 °F 46% 30.16 in 10.0 mi West 5.8 mph - N/A   Clear
4:55 AM 26.6 °F 17.5 °F 6.8 °F 43% 30.17 in 10.0 mi WSW 9.2 mph 21.9 mph N/A   Clear
5:15 AM 24.8 °F 13.4 °F 5.0 °F 43% 30.17 in 10.0 mi West 12.7 mph 19.6 mph N/A   Clear
6:15 AM 24.8 °F 12.9 °F 6.8 °F 46% 30.17 in 10.0 mi West 13.8 mph 23.0 mph N/A   Clear
6:35 AM 24.8 °F 16.1 °F 6.8 °F 46% 30.17 in 10.0 mi West 8.1 mph 19.6 mph N/A   Clear
6:55 AM 24.8 °F 13.4 °F 6.8 °F 46% 30.17 in 10.0 mi WSW 12.7 mph 18.4 mph N/A   Clear
7:15 AM 26.6 °F 15.7 °F 6.8 °F 43% 30.17 in 10.0 mi West 12.7 mph 23.0 mph N/A   Clear
7:35 AM 26.6 °F 15.2 °F 6.8 °F 43% 30.17 in 10.0 mi West 13.8 mph 21.9 mph N/A   Clear
7:55 AM 26.6 °F 15.2 °F 6.8 °F 43% 30.18 in 10.0 mi West 13.8 mph 24.2 mph N/A   Clear
8:15 AM 28.4 °F 19.1 °F 6.8 °F 40% 30.18 in 10.0 mi WSW 10.4 mph 19.6 mph N/A   Clear
8:35 AM 28.4 °F 18.0 °F 8.6 °F 43% 30.18 in 10.0 mi West 12.7 mph 21.9 mph N/A   Clear
9:15 AM 30.2 °F 18.5 °F 8.6 °F 40% 30.17 in 10.0 mi WSW 17.3 mph 26.5 mph N/A   Clear
9:35 AM 30.2 °F 19.3 °F 8.6 °F 40% 30.17 in 10.0 mi WSW 15.0 mph 31.1 mph N/A   Clear
9:55 AM 30.2 °F 18.1 °F 6.8 °F 37% 30.17 in 10.0 mi West 18.4 mph 26.5 mph N/A   Clear
10:15 AM 32.0 °F 20.5 °F 6.8 °F 35% 30.17 in 10.0 mi WSW 18.4 mph 26.5 mph N/A   Partly Cloudy
10:35 AM 32.0 °F 21.2 °F 6.8 °F 35% 30.17 in 10.0 mi WSW 16.1 mph 31.1 mph N/A   Clear
10:55 AM 33.8 °F 23.9 °F 8.6 °F 35% 30.17 in 10.0 mi WSW 15.0 mph 26.5 mph N/A   Clear
11:15 AM 35.6 °F 27.5 °F 8.6 °F 33% 30.16 in 10.0 mi WSW 11.5 mph 19.6 mph N/A   Clear
11:35 AM 35.6 °F 25.9 °F 8.6 °F 33% 30.16 in 10.0 mi WSW 16.1 mph 23.0 mph N/A   Clear
11:55 AM 35.6 °F 27.5 °F 8.6 °F 33% 30.16 in 10.0 mi WSW 11.5 mph 20.7 mph N/A   Clear
12:15 PM 37.4 °F 29.8 °F 8.6 °F 30% 30.16 in 10.0 mi WSW 11.5 mph 18.4 mph N/A   Clear
12:35 PM 37.4 °F 31.4 °F 8.6 °F 30% 30.15 in 10.0 mi West 8.1 mph 17.3 mph N/A   Clear
12:55 PM 39.2 °F 32.5 °F 10.4 °F 31% 30.15 in 10.0 mi SW 10.4 mph - N/A   Scattered Clouds
1:15 PM 39.2 °F 32.0 °F 10.4 °F 31% 30.15 in 10.0 mi WSW 11.5 mph 18.4 mph N/A   Overcast
1:35 PM 39.2 °F 31.6 °F 10.4 °F 31% 30.14 in 10.0 mi West 12.7 mph 20.7 mph N/A   Overcast
1:55 PM 39.2 °F 30.5 °F 8.6 °F 28% 30.13 in 10.0 mi West 16.1 mph 21.9 mph N/A   Overcast
2:15 PM 39.2 °F 30.8 °F 10.4 °F 31% 30.13 in 10.0 mi West 15.0 mph 19.6 mph N/A   Mostly Cloudy
2:55 PM 39.2 °F 31.6 °F 8.6 °F 28% 30.13 in 10.0 mi WNW 12.7 mph 18.4 mph N/A   Mostly Cloudy
3:15 PM 37.4 °F 29.8 °F 8.6 °F 30% 30.14 in 10.0 mi West 11.5 mph 17.3 mph N/A   Overcast
3:35 PM 37.4 °F 29.3 °F 8.6 °F 30% 30.14 in 10.0 mi WSW 12.7 mph 20.7 mph N/A   Scattered Clouds
3:55 PM 37.4 °F 28.5 °F 8.6 °F 30% 30.13 in 10.0 mi WSW 15.0 mph 21.9 mph N/A   Clear
4:15 PM 35.6 °F 26.6 °F 10.4 °F 35% 30.14 in 10.0 mi WSW 13.8 mph 19.6 mph N/A   Clear
4:35 PM 35.6 °F 29.2 °F 10.4 °F 35% 30.14 in 10.0 mi WSW 8.1 mph 16.1 mph N/A   Clear
4:55 PM 37.4 °F 29.3 °F 10.4 °F 33% 30.14 in 10.0 mi WSW 12.7 mph 21.9 mph N/A   Clear
5:15 PM 37.4 °F 28.9 °F 10.4 °F 33% 30.14 in 10.0 mi West 13.8 mph 23.0 mph N/A   Clear
5:35 PM 35.6 °F 27.5 °F 10.4 °F 35% 30.14 in 10.0 mi WSW 11.5 mph 18.4 mph N/A   Clear
5:55 PM 35.6 °F 27.1 °F 8.6 °F 33% 30.14 in 10.0 mi West 12.7 mph 24.2 mph N/A   Clear
6:15 PM 33.8 °F 23.9 °F 8.6 °F 35% 30.14 in 10.0 mi West 15.0 mph 19.6 mph N/A   Clear
6:35 PM 33.8 °F 23.2 °F 8.6 °F 35% 30.14 in 10.0 mi WSW 17.3 mph 23.0 mph N/A   Clear
7:15 PM 33.8 °F 23.2 °F 8.6 °F 35% 30.14 in 10.0 mi West 17.3 mph 21.9 mph N/A   Clear
7:35 PM 33.8 °F 24.8 °F 8.6 °F 35% 30.14 in 10.0 mi West 12.7 mph 21.9 mph N/A   Clear
7:55 PM 33.8 °F 27.7 °F 8.6 °F 35% 30.15 in 10.0 mi WSW 6.9 mph 24.2 mph N/A   Clear
8:15 PM 33.8 °F 23.5 °F 8.6 °F 35% 30.15 in 10.0 mi West 16.1 mph 26.5 mph N/A   Clear
8:35 PM 32.0 °F 23.0 °F 8.6 °F 38% 30.16 in 10.0 mi WNW 11.5 mph 19.6 mph N/A   Clear
8:55 PM 32.0 °F 24.8 °F 8.6 °F 38% 30.17 in 10.0 mi West 8.1 mph - N/A   Clear
9:15 PM 32.0 °F 24.8 °F 8.6 °F 38% 30.17 in 10.0 mi West 8.1 mph 18.4 mph N/A   Clear
9:35 PM 30.2 °F 24.3 °F 6.8 °F 37% 30.17 in 10.0 mi WNW 5.8 mph - N/A   Clear
9:55 PM 30.2 °F 24.3 °F 8.6 °F 40% 30.17 in 10.0 mi West 5.8 mph - N/A   Clear
10:15 PM 30.2 °F 21.3 °F 8.6 °F 40% 30.17 in 10.0 mi West 10.4 mph - N/A   Clear
10:35 PM 32.0 °F 24.8 °F 8.6 °F 38% 30.17 in 10.0 mi WNW 8.1 mph 17.3 mph N/A   Clear
11:15 PM 32.0 °F 22.1 °F 6.8 °F 35% 30.17 in 10.0 mi West 13.8 mph 20.7 mph N/A   Clear
11:35 PM 32.0 °F 23.0 °F 6.8 °F 35% 30.18 in 10.0 mi West 11.5 mph 18.4 mph N/A   Clear
11:55 PM 30.2 °F 19.8 °F 6.8 °F 37% 30.17 in 10.0 mi West 13.8 mph 19.6 mph N/A   Partly Cloudy